sensor_id;sensor_type;location;lat;lon;timestamp;temperature;humidity
31783;DHT22;18351;47.560;9.708;2024-02-16T00:00:25;6.70;99.90
31783;DHT22;18351;47.560;9.708;2024-02-16T00:02:51;6.80;99.90
31783;DHT22;18351;47.560;9.708;2024-02-16T00:05:17;6.80;99.90
31783;DHT22;18351;47.560;9.708;2024-02-16T00:07:43;6.80;99.90
31783;DHT22;18351;47.560;9.708;2024-02-16T00:10:09;6.80;99.90
31783;DHT22;18351;47.560;9.708;2024-02-16T00:12:35;6.80;99.90
31783;DHT22;18351;47.560;9.708;2024-02-16T00:15:02;6.80;99.90
31783;DHT22;18351;47.560;9.708;2024-02-16T00:17:28;6.70;99.90
31783;DHT22;18351;47.560;9.708;2024-02-16T00:19:57;6.90;99.90
31783;DHT22;18351;47.560;9.708;2024-02-16T00:22:23;6.80;99.90
31783;DHT22;18351;47.560;9.708;2024-02-16T00:24:48;6.90;99.90
31783;DHT22;18351;47.560;9.708;2024-02-16T00:27:15;6.90;99.90
31783;DHT22;18351;47.560;9.708;2024-02-16T00:29:41;6.80;99.90
31783;DHT22;18351;47.560;9.708;2024-02-16T00:32:07;6.80;99.90
31783;DHT22;18351;47.560;9.708;2024-02-16T00:34:36;6.80;99.90
31783;DHT22;18351;47.560;9.708;2024-02-16T00:37:02;6.80;99.90
31783;DHT22;18351;47.560;9.708;2024-02-16T00:39:29;6.80;99.90
31783;DHT22;18351;47.560;9.708;2024-02-16T00:41:55;6.80;99.90
31783;DHT22;18351;47.560;9.708;2024-02-16T00:44:20;6.80;99.90
31783;DHT22;18351;47.560;9.708;2024-02-16T00:46:46;6.90;99.90
31783;DHT22;18351;47.560;9.708;2024-02-16T00:49:11;6.90;99.90
31783;DHT22;18351;47.560;9.708;2024-02-16T00:51:37;6.90;99.90
31783;DHT22;18351;47.560;9.708;2024-02-16T00:54:03;6.90;99.90
31783;DHT22;18351;47.560;9.708;2024-02-16T00:56:30;6.90;99.90
31783;DHT22;18351;47.560;9.708;2024-02-16T00:58:56;7.00;99.90
31783;DHT22;18351;47.560;9.708;2024-02-16T01:01:22;7.00;99.90
31783;DHT22;18351;47.560;9.708;2024-02-16T01:03:48;7.00;99.90
31783;DHT22;18351;47.560;9.708;2024-02-16T01:06:14;7.00;99.90
31783;DHT22;18351;47.560;9.708;2024-02-16T01:08:40;7.00;99.90
31783;DHT22;18351;47.560;9.708;2024-02-16T01:11:05;7.00;99.90
31783;DHT22;18351;47.560;9.708;2024-02-16T01:13:31;7.00;99.90
31783;DHT22;18351;47.560;9.708;2024-02-16T01:15:58;7.00;99.90
31783;DHT22;18351;47.560;9.708;2024-02-16T01:18:23;7.00;99.90
31783;DHT22;18351;47.560;9.708;2024-02-16T01:20:49;7.00;99.90
31783;DHT22;18351;47.560;9.708;2024-02-16T01:23:14;6.90;99.90
31783;DHT22;18351;47.560;9.708;2024-02-16T01:25:40;6.90;99.90
31783;DHT22;18351;47.560;9.708;2024-02-16T01:28:06;6.90;99.90
31783;DHT22;18351;47.560;9.708;2024-02-16T01:30:31;6.90;99.90
31783;DHT22;18351;47.560;9.708;2024-02-16T01:32:57;6.90;99.90
31783;DHT22;18351;47.560;9.708;2024-02-16T01:35:22;6.90;99.90
31783;DHT22;18351;47.560;9.708;2024-02-16T01:37:49;6.90;99.90
31783;DHT22;18351;47.560;9.708;2024-02-16T01:40:14;6.90;99.90
31783;DHT22;18351;47.560;9.708;2024-02-16T01:42:43;6.80;99.90
31783;DHT22;18351;47.560;9.708;2024-02-16T01:45:09;6.80;99.90
31783;DHT22;18351;47.560;9.708;2024-02-16T01:47:37;6.70;99.90
31783;DHT22;18351;47.560;9.708;2024-02-16T01:50:02;6.70;99.90
31783;DHT22;18351;47.560;9.708;2024-02-16T01:52:29;6.70;99.90
31783;DHT22;18351;47.560;9.708;2024-02-16T01:54:57;6.80;99.90
31783;DHT22;18351;47.560;9.708;2024-02-16T01:57:23;6.70;99.90
31783;DHT22;18351;47.560;9.708;2024-02-16T01:59:49;6.70;99.90
31783;DHT22;18351;47.560;9.708;2024-02-16T02:02:15;6.60;99.90
31783;DHT22;18351;47.560;9.708;2024-02-16T02:04:41;6.60;99.90
31783;DHT22;18351;47.560;9.708;2024-02-16T02:07:16;6.60;99.90
31783;DHT22;18351;47.560;9.708;2024-02-16T02:09:42;6.50;99.90
31783;DHT22;18351;47.560;9.708;2024-02-16T02:12:09;6.50;99.90
31783;DHT22;18351;47.560;9.708;2024-02-16T02:14:35;6.60;99.90
31783;DHT22;18351;47.560;9.708;2024-02-16T02:17:01;6.60;99.90
31783;DHT22;18351;47.560;9.708;2024-02-16T02:19:26;6.60;99.90
31783;DHT22;18351;47.560;9.708;2024-02-16T02:21:52;6.50;99.90
31783;DHT22;18351;47.560;9.708;2024-02-16T02:24:17;6.50;99.90
31783;DHT22;18351;47.560;9.708;2024-02-16T02:26:43;6.50;99.90
31783;DHT22;18351;47.560;9.708;2024-02-16T02:29:09;6.50;99.90
31783;DHT22;18351;47.560;9.708;2024-02-16T02:31:34;6.50;99.90
31783;DHT22;18351;47.560;9.708;2024-02-16T02:34:00;6.50;99.90
31783;DHT22;18351;47.560;9.708;2024-02-16T02:36:26;6.60;99.90
31783;DHT22;18351;47.560;9.708;2024-02-16T02:38:51;6.60;99.90
31783;DHT22;18351;47.560;9.708;2024-02-16T02:41:17;6.60;99.90
31783;DHT22;18351;47.560;9.708;2024-02-16T02:43:45;6.60;99.90
31783;DHT22;18351;47.560;9.708;2024-02-16T02:46:15;6.60;99.90
31783;DHT22;18351;47.560;9.708;2024-02-16T02:48:42;6.50;99.90
31783;DHT22;18351;47.560;9.708;2024-02-16T02:51:08;6.40;99.90
31783;DHT22;18351;47.560;9.708;2024-02-16T02:53:35;6.50;99.90
31783;DHT22;18351;47.560;9.708;2024-02-16T02:56:00;6.50;99.90
31783;DHT22;18351;47.560;9.708;2024-02-16T02:58:26;6.50;99.90
31783;DHT22;18351;47.560;9.708;2024-02-16T03:00:51;6.50;99.90
31783;DHT22;18351;47.560;9.708;2024-02-16T03:03:17;6.50;99.90
31783;DHT22;18351;47.560;9.708;2024-02-16T03:05:42;6.50;99.90
31783;DHT22;18351;47.560;9.708;2024-02-16T03:08:08;6.50;99.90
31783;DHT22;18351;47.560;9.708;2024-02-16T03:10:36;6.50;99.90
31783;DHT22;18351;47.560;9.708;2024-02-16T03:13:02;6.50;99.90
31783;DHT22;18351;47.560;9.708;2024-02-16T03:15:28;6.50;99.90
31783;DHT22;18351;47.560;9.708;2024-02-16T03:17:55;6.40;99.90
31783;DHT22;18351;47.560;9.708;2024-02-16T03:20:20;6.40;99.90
31783;DHT22;18351;47.560;9.708;2024-02-16T03:22:46;6.40;99.90
31783;DHT22;18351;47.560;9.708;2024-02-16T03:25:12;6.40;99.90
31783;DHT22;18351;47.560;9.708;2024-02-16T03:27:38;6.40;99.90
31783;DHT22;18351;47.560;9.708;2024-02-16T03:30:04;6.40;99.90
31783;DHT22;18351;47.560;9.708;2024-02-16T03:32:31;6.40;99.90
31783;DHT22;18351;47.560;9.708;2024-02-16T03:34:57;6.40;99.90
31783;DHT22;18351;47.560;9.708;2024-02-16T03:37:24;6.50;99.90
31783;DHT22;18351;47.560;9.708;2024-02-16T03:39:50;6.40;99.90
31783;DHT22;18351;47.560;9.708;2024-02-16T03:42:16;6.50;99.90
31783;DHT22;18351;47.560;9.708;2024-02-16T03:44:43;6.50;99.90
31783;DHT22;18351;47.560;9.708;2024-02-16T03:47:09;6.50;99.90
31783;DHT22;18351;47.560;9.708;2024-02-16T03:49:34;6.50;99.90
31783;DHT22;18351;47.560;9.708;2024-02-16T03:52:00;6.50;99.90
31783;DHT22;18351;47.560;9.708;2024-02-16T03:54:25;6.40;99.90
31783;DHT22;18351;47.560;9.708;2024-02-16T03:56:54;6.40;99.90
31783;DHT22;18351;47.560;9.708;2024-02-16T03:59:20;6.40;99.90
31783;DHT22;18351;47.560;9.708;2024-02-16T04:01:46;6.40;99.90
31783;DHT22;18351;47.560;9.708;2024-02-16T04:04:11;6.50;99.90
31783;DHT22;18351;47.560;9.708;2024-02-16T04:06:38;6.40;99.90
31783;DHT22;18351;47.560;9.708;2024-02-16T04:09:04;6.40;99.90
31783;DHT22;18351;47.560;9.708;2024-02-16T04:11:34;6.40;99.90
31783;DHT22;18351;47.560;9.708;2024-02-16T04:14:00;6.40;99.90
31783;DHT22;18351;47.560;9.708;2024-02-16T04:16:26;6.40;99.90
31783;DHT22;18351;47.560;9.708;2024-02-16T04:18:52;6.30;99.90
31783;DHT22;18351;47.560;9.708;2024-02-16T04:21:18;6.30;99.90
31783;DHT22;18351;47.560;9.708;2024-02-16T04:23:44;6.20;99.90
31783;DHT22;18351;47.560;9.708;2024-02-16T04:26:10;6.10;99.90
31783;DHT22;18351;47.560;9.708;2024-02-16T04:28:36;6.10;99.90
31783;DHT22;18351;47.560;9.708;2024-02-16T04:31:01;6.10;99.90
31783;DHT22;18351;47.560;9.708;2024-02-16T04:33:27;6.00;99.90
31783;DHT22;18351;47.560;9.708;2024-02-16T04:35:52;5.90;99.90
31783;DHT22;18351;47.560;9.708;2024-02-16T04:38:18;5.80;99.90
31783;DHT22;18351;47.560;9.708;2024-02-16T04:40:44;5.70;99.90
31783;DHT22;18351;47.560;9.708;2024-02-16T04:43:09;5.70;99.90
31783;DHT22;18351;47.560;9.708;2024-02-16T04:45:35;5.70;99.90
31783;DHT22;18351;47.560;9.708;2024-02-16T04:48:04;5.60;99.90
31783;DHT22;18351;47.560;9.708;2024-02-16T04:50:31;5.50;99.90
31783;DHT22;18351;47.560;9.708;2024-02-16T04:52:57;5.50;99.90
31783;DHT22;18351;47.560;9.708;2024-02-16T04:55:23;5.50;99.90
31783;DHT22;18351;47.560;9.708;2024-02-16T04:57:48;5.40;99.90
31783;DHT22;18351;47.560;9.708;2024-02-16T05:00:14;5.30;99.90
31783;DHT22;18351;47.560;9.708;2024-02-16T05:02:40;5.30;99.90
31783;DHT22;18351;47.560;9.708;2024-02-16T05:05:05;5.20;99.90
31783;DHT22;18351;47.560;9.708;2024-02-16T05:07:31;5.20;99.90
31783;DHT22;18351;47.560;9.708;2024-02-16T05:09:57;5.20;99.90
31783;DHT22;18351;47.560;9.708;2024-02-16T05:12:24;5.20;99.90
31783;DHT22;18351;47.560;9.708;2024-02-16T05:14:50;5.10;99.90
31783;DHT22;18351;47.560;9.708;2024-02-16T05:17:16;5.00;99.90
31783;DHT22;18351;47.560;9.708;2024-02-16T05:19:41;5.00;99.90
31783;DHT22;18351;47.560;9.708;2024-02-16T05:22:07;4.90;99.90
31783;DHT22;18351;47.560;9.708;2024-02-16T05:24:32;4.90;99.90
31783;DHT22;18351;47.560;9.708;2024-02-16T05:26:58;4.80;99.90
31783;DHT22;18351;47.560;9.708;2024-02-16T05:29:25;4.90;99.90
31783;DHT22;18351;47.560;9.708;2024-02-16T05:31:52;4.80;99.90
31783;DHT22;18351;47.560;9.708;2024-02-16T05:34:18;4.80;99.90
31783;DHT22;18351;47.560;9.708;2024-02-16T05:36:43;4.80;99.90
31783;DHT22;18351;47.560;9.708;2024-02-16T05:39:10;4.80;99.90
31783;DHT22;18351;47.560;9.708;2024-02-16T05:41:45;4.80;99.90
31783;DHT22;18351;47.560;9.708;2024-02-16T05:44:10;4.80;99.90
31783;DHT22;18351;47.560;9.708;2024-02-16T05:46:36;4.80;99.90
31783;DHT22;18351;47.560;9.708;2024-02-16T05:49:03;4.80;99.90
31783;DHT22;18351;47.560;9.708;2024-02-16T05:51:39;4.80;99.90
31783;DHT22;18351;47.560;9.708;2024-02-16T05:54:06;4.70;99.90
31783;DHT22;18351;47.560;9.708;2024-02-16T05:56:36;4.80;99.90
31783;DHT22;18351;47.560;9.708;2024-02-16T05:59:04;4.80;99.90
31783;DHT22;18351;47.560;9.708;2024-02-16T06:01:31;4.70;99.90
31783;DHT22;18351;47.560;9.708;2024-02-16T06:03:56;4.70;99.90
31783;DHT22;18351;47.560;9.708;2024-02-16T06:06:22;4.60;99.90
31783;DHT22;18351;47.560;9.708;2024-02-16T06:08:47;4.60;99.90
31783;DHT22;18351;47.560;9.708;2024-02-16T06:11:13;4.50;99.90
31783;DHT22;18351;47.560;9.708;2024-02-16T06:13:39;4.50;99.90
31783;DHT22;18351;47.560;9.708;2024-02-16T06:16:05;4.40;99.90
31783;DHT22;18351;47.560;9.708;2024-02-16T06:18:34;4.50;99.90
31783;DHT22;18351;47.560;9.708;2024-02-16T06:20:59;4.40;99.90
31783;DHT22;18351;47.560;9.708;2024-02-16T06:23:25;4.50;99.90
31783;DHT22;18351;47.560;9.708;2024-02-16T06:25:50;4.50;99.90
31783;DHT22;18351;47.560;9.708;2024-02-16T06:28:16;4.50;99.90
31783;DHT22;18351;47.560;9.708;2024-02-16T06:30:42;4.50;99.90
31783;DHT22;18351;47.560;9.708;2024-02-16T06:33:07;4.40;99.90
31783;DHT22;18351;47.560;9.708;2024-02-16T06:35:33;4.40;99.90
31783;DHT22;18351;47.560;9.708;2024-02-16T06:37:58;4.40;99.90
31783;DHT22;18351;47.560;9.708;2024-02-16T06:40:24;4.30;99.90
31783;DHT22;18351;47.560;9.708;2024-02-16T06:42:51;4.40;99.90
31783;DHT22;18351;47.560;9.708;2024-02-16T06:45:17;4.30;99.90
31783;DHT22;18351;47.560;9.708;2024-02-16T06:47:42;4.30;99.90
31783;DHT22;18351;47.560;9.708;2024-02-16T06:50:08;4.20;99.90
31783;DHT22;18351;47.560;9.708;2024-02-16T06:52:34;4.30;99.90
31783;DHT22;18351;47.560;9.708;2024-02-16T06:54:59;4.30;99.90
31783;DHT22;18351;47.560;9.708;2024-02-16T06:57:25;4.40;99.90
31783;DHT22;18351;47.560;9.708;2024-02-16T06:59:50;4.40;99.90
31783;DHT22;18351;47.560;9.708;2024-02-16T07:02:18;4.60;99.90
31783;DHT22;18351;47.560;9.708;2024-02-16T07:04:43;4.70;99.90
31783;DHT22;18351;47.560;9.708;2024-02-16T07:07:11;4.70;99.90
31783;DHT22;18351;47.560;9.708;2024-02-16T07:09:36;4.80;99.90
31783;DHT22;18351;47.560;9.708;2024-02-16T07:12:02;4.90;99.90
31783;DHT22;18351;47.560;9.708;2024-02-16T07:14:28;5.00;99.90
31783;DHT22;18351;47.560;9.708;2024-02-16T07:16:53;5.10;99.90
31783;DHT22;18351;47.560;9.708;2024-02-16T07:19:20;5.10;99.90
31783;DHT22;18351;47.560;9.708;2024-02-16T07:21:45;5.20;99.90
31783;DHT22;18351;47.560;9.708;2024-02-16T07:24:11;5.30;99.90
31783;DHT22;18351;47.560;9.708;2024-02-16T07:26:36;5.40;99.90
31783;DHT22;18351;47.560;9.708;2024-02-16T07:29:02;5.50;99.90
31783;DHT22;18351;47.560;9.708;2024-02-16T07:31:32;5.50;99.90
31783;DHT22;18351;47.560;9.708;2024-02-16T07:33:59;5.60;99.90
31783;DHT22;18351;47.560;9.708;2024-02-16T07:36:24;5.70;99.90
31783;DHT22;18351;47.560;9.708;2024-02-16T07:38:50;5.80;99.90
31783;DHT22;18351;47.560;9.708;2024-02-16T07:41:15;5.90;99.90
31783;DHT22;18351;47.560;9.708;2024-02-16T07:43:42;6.00;99.90
31783;DHT22;18351;47.560;9.708;2024-02-16T07:46:07;6.00;99.90
31783;DHT22;18351;47.560;9.708;2024-02-16T07:48:33;6.10;99.90
31783;DHT22;18351;47.560;9.708;2024-02-16T07:51:00;6.10;99.90
31783;DHT22;18351;47.560;9.708;2024-02-16T07:53:28;6.20;99.90
31783;DHT22;18351;47.560;9.708;2024-02-16T07:55:53;6.30;99.90
31783;DHT22;18351;47.560;9.708;2024-02-16T07:58:19;6.40;99.90
31783;DHT22;18351;47.560;9.708;2024-02-16T08:00:45;6.40;99.90
31783;DHT22;18351;47.560;9.708;2024-02-16T08:03:10;6.40;99.90
31783;DHT22;18351;47.560;9.708;2024-02-16T08:05:36;6.50;99.90
31783;DHT22;18351;47.560;9.708;2024-02-16T08:08:01;6.60;99.90
31783;DHT22;18351;47.560;9.708;2024-02-16T08:10:27;6.70;99.90
31783;DHT22;18351;47.560;9.708;2024-02-16T08:12:52;6.70;99.90
31783;DHT22;18351;47.560;9.708;2024-02-16T08:15:18;6.90;99.90
31783;DHT22;18351;47.560;9.708;2024-02-16T08:17:51;6.90;99.90
31783;DHT22;18351;47.560;9.708;2024-02-16T08:20:17;7.00;99.90
31783;DHT22;18351;47.560;9.708;2024-02-16T08:22:43;7.10;99.90
31783;DHT22;18351;47.560;9.708;2024-02-16T08:25:08;7.20;99.90
31783;DHT22;18351;47.560;9.708;2024-02-16T08:27:34;7.30;99.90
31783;DHT22;18351;47.560;9.708;2024-02-16T08:29:59;7.40;99.90
31783;DHT22;18351;47.560;9.708;2024-02-16T08:32:27;7.60;99.90
31783;DHT22;18351;47.560;9.708;2024-02-16T08:34:53;7.70;99.90
31783;DHT22;18351;47.560;9.708;2024-02-16T08:37:19;7.90;99.90
31783;DHT22;18351;47.560;9.708;2024-02-16T08:39:44;8.10;99.90
31783;DHT22;18351;47.560;9.708;2024-02-16T08:42:10;8.40;99.90
31783;DHT22;18351;47.560;9.708;2024-02-16T08:44:36;8.40;99.90
31783;DHT22;18351;47.560;9.708;2024-02-16T08:47:02;8.60;99.90
31783;DHT22;18351;47.560;9.708;2024-02-16T08:49:28;8.70;99.90
31783;DHT22;18351;47.560;9.708;2024-02-16T08:51:53;8.80;99.90
31783;DHT22;18351;47.560;9.708;2024-02-16T08:54:19;8.80;99.90
31783;DHT22;18351;47.560;9.708;2024-02-16T08:56:47;8.90;99.90
31783;DHT22;18351;47.560;9.708;2024-02-16T08:59:13;9.00;99.90
31783;DHT22;18351;47.560;9.708;2024-02-16T09:01:39;9.10;99.90
31783;DHT22;18351;47.560;9.708;2024-02-16T09:04:05;9.10;99.90
31783;DHT22;18351;47.560;9.708;2024-02-16T09:06:31;9.20;99.90
31783;DHT22;18351;47.560;9.708;2024-02-16T09:08:57;9.20;99.90
31783;DHT22;18351;47.560;9.708;2024-02-16T09:11:23;9.30;99.90
31783;DHT22;18351;47.560;9.708;2024-02-16T09:13:49;9.40;99.90
31783;DHT22;18351;47.560;9.708;2024-02-16T09:16:15;9.50;99.90
31783;DHT22;18351;47.560;9.708;2024-02-16T09:18:40;9.60;99.90
31783;DHT22;18351;47.560;9.708;2024-02-16T09:21:06;9.70;99.90
31783;DHT22;18351;47.560;9.708;2024-02-16T09:23:33;9.90;99.90
31783;DHT22;18351;47.560;9.708;2024-02-16T09:25:59;10.00;99.90
31783;DHT22;18351;47.560;9.708;2024-02-16T09:28:26;10.10;99.90
31783;DHT22;18351;47.560;9.708;2024-02-16T09:30:51;10.20;99.90
31783;DHT22;18351;47.560;9.708;2024-02-16T09:33:17;10.30;99.90
31783;DHT22;18351;47.560;9.708;2024-02-16T09:35:42;10.40;99.90
31783;DHT22;18351;47.560;9.708;2024-02-16T09:38:08;10.40;99.90
31783;DHT22;18351;47.560;9.708;2024-02-16T09:40:37;10.50;99.90
31783;DHT22;18351;47.560;9.708;2024-02-16T09:43:02;10.70;99.90
31783;DHT22;18351;47.560;9.708;2024-02-16T09:45:29;10.80;99.90
31783;DHT22;18351;47.560;9.708;2024-02-16T09:47:56;10.90;99.90
31783;DHT22;18351;47.560;9.708;2024-02-16T09:50:22;11.00;99.90
31783;DHT22;18351;47.560;9.708;2024-02-16T09:52:49;11.00;99.90
31783;DHT22;18351;47.560;9.708;2024-02-16T09:55:16;11.10;99.90
31783;DHT22;18351;47.560;9.708;2024-02-16T09:57:43;11.30;99.90
31783;DHT22;18351;47.560;9.708;2024-02-16T10:00:09;11.40;99.90
31783;DHT22;18351;47.560;9.708;2024-02-16T10:02:44;11.50;99.90
31783;DHT22;18351;47.560;9.708;2024-02-16T10:05:17;11.70;99.90
31783;DHT22;18351;47.560;9.708;2024-02-16T10:07:43;11.80;99.90
31783;DHT22;18351;47.560;9.708;2024-02-16T10:10:28;11.80;99.90
31783;DHT22;18351;47.560;9.708;2024-02-16T10:13:04;12.00;99.90
31783;DHT22;18351;47.560;9.708;2024-02-16T10:15:31;12.10;99.90
31783;DHT22;18351;47.560;9.708;2024-02-16T10:18:04;12.30;99.90
31783;DHT22;18351;47.560;9.708;2024-02-16T10:20:32;12.50;99.90
31783;DHT22;18351;47.560;9.708;2024-02-16T10:23:10;12.80;99.90
31783;DHT22;18351;47.560;9.708;2024-02-16T10:25:37;13.00;99.90
31783;DHT22;18351;47.560;9.708;2024-02-16T10:28:08;13.20;99.90
31783;DHT22;18351;47.560;9.708;2024-02-16T10:30:38;13.30;99.90
31783;DHT22;18351;47.560;9.708;2024-02-16T10:33:07;13.40;99.90
31783;DHT22;18351;47.560;9.708;2024-02-16T10:35:36;13.50;99.90
31783;DHT22;18351;47.560;9.708;2024-02-16T10:38:04;13.60;99.90
31783;DHT22;18351;47.560;9.708;2024-02-16T10:40:32;13.70;99.90
31783;DHT22;18351;47.560;9.708;2024-02-16T10:43:03;13.80;99.90
31783;DHT22;18351;47.560;9.708;2024-02-16T10:45:30;14.00;99.20
31783;DHT22;18351;47.560;9.708;2024-02-16T10:47:57;14.10;98.40
31783;DHT22;18351;47.560;9.708;2024-02-16T10:50:23;14.20;98.80
31783;DHT22;18351;47.560;9.708;2024-02-16T10:52:49;14.20;98.00
31783;DHT22;18351;47.560;9.708;2024-02-16T10:55:15;14.30;98.10
31783;DHT22;18351;47.560;9.708;2024-02-16T10:57:41;14.40;97.50
31783;DHT22;18351;47.560;9.708;2024-02-16T11:00:10;14.40;97.50
31783;DHT22;18351;47.560;9.708;2024-02-16T11:02:55;14.50;97.80
31783;DHT22;18351;47.560;9.708;2024-02-16T11:05:40;14.50;98.10
31783;DHT22;18351;47.560;9.708;2024-02-16T11:08:20;14.60;98.00
31783;DHT22;18351;47.560;9.708;2024-02-16T11:11:00;14.70;97.20
31783;DHT22;18351;47.560;9.708;2024-02-16T11:13:27;14.80;97.50
31783;DHT22;18351;47.560;9.708;2024-02-16T11:16:06;15.00;97.40
31783;DHT22;18351;47.560;9.708;2024-02-16T11:18:36;15.00;97.40
31783;DHT22;18351;47.560;9.708;2024-02-16T11:21:03;15.00;97.00
31783;DHT22;18351;47.560;9.708;2024-02-16T11:23:32;14.90;97.00
31783;DHT22;18351;47.560;9.708;2024-02-16T11:26:04;14.80;96.80
31783;DHT22;18351;47.560;9.708;2024-02-16T11:28:34;14.80;97.00
31783;DHT22;18351;47.560;9.708;2024-02-16T11:31:00;14.90;97.00
31783;DHT22;18351;47.560;9.708;2024-02-16T11:33:26;15.00;96.20
31783;DHT22;18351;47.560;9.708;2024-02-16T11:36:03;14.90;95.90
31783;DHT22;18351;47.560;9.708;2024-02-16T11:38:31;14.90;96.20
31783;DHT22;18351;47.560;9.708;2024-02-16T11:41:03;15.00;96.60
31783;DHT22;18351;47.560;9.708;2024-02-16T11:43:30;15.10;96.50
31783;DHT22;18351;47.560;9.708;2024-02-16T11:45:56;15.10;96.60
31783;DHT22;18351;47.560;9.708;2024-02-16T11:48:26;15.10;96.00
31783;DHT22;18351;47.560;9.708;2024-02-16T11:51:01;15.20;96.30
31783;DHT22;18351;47.560;9.708;2024-02-16T11:53:28;15.20;95.50
31783;DHT22;18351;47.560;9.708;2024-02-16T11:55:53;15.30;95.10
31783;DHT22;18351;47.560;9.708;2024-02-16T11:58:19;15.20;95.80
31783;DHT22;18351;47.560;9.708;2024-02-16T12:00:46;15.20;95.80
31783;DHT22;18351;47.560;9.708;2024-02-16T12:03:26;15.30;95.60
31783;DHT22;18351;47.560;9.708;2024-02-16T12:05:58;15.30;95.80
31783;DHT22;18351;47.560;9.708;2024-02-16T12:08:24;15.40;95.80
31783;DHT22;18351;47.560;9.708;2024-02-16T12:10:51;15.30;95.30
31783;DHT22;18351;47.560;9.708;2024-02-16T12:13:17;15.40;95.90
31783;DHT22;18351;47.560;9.708;2024-02-16T12:15:44;15.10;95.10
31783;DHT22;18351;47.560;9.708;2024-02-16T12:18:13;14.80;96.40
31783;DHT22;18351;47.560;9.708;2024-02-16T12:20:43;14.80;95.50
31783;DHT22;18351;47.560;9.708;2024-02-16T12:23:13;15.00;95.40
31783;DHT22;18351;47.560;9.708;2024-02-16T12:25:39;15.10;95.60
31783;DHT22;18351;47.560;9.708;2024-02-16T12:28:05;15.20;93.90
31783;DHT22;18351;47.560;9.708;2024-02-16T12:30:30;15.30;94.70
31783;DHT22;18351;47.560;9.708;2024-02-16T12:32:56;15.50;94.60
31783;DHT22;18351;47.560;9.708;2024-02-16T12:35:21;15.80;93.40
31783;DHT22;18351;47.560;9.708;2024-02-16T12:37:47;15.90;92.80
31783;DHT22;18351;47.560;9.708;2024-02-16T12:40:13;16.00;92.50
31783;DHT22;18351;47.560;9.708;2024-02-16T12:42:38;16.20;92.30
31783;DHT22;18351;47.560;9.708;2024-02-16T12:45:04;16.30;92.00
31783;DHT22;18351;47.560;9.708;2024-02-16T12:47:30;16.30;91.10
31783;DHT22;18351;47.560;9.708;2024-02-16T12:49:56;16.30;91.80
31783;DHT22;18351;47.560;9.708;2024-02-16T12:52:23;16.20;91.30
31783;DHT22;18351;47.560;9.708;2024-02-16T12:54:48;16.10;91.40
31783;DHT22;18351;47.560;9.708;2024-02-16T12:57:14;16.00;92.10
31783;DHT22;18351;47.560;9.708;2024-02-16T12:59:40;15.90;92.20
31783;DHT22;18351;47.560;9.708;2024-02-16T13:02:05;16.00;92.30
31783;DHT22;18351;47.560;9.708;2024-02-16T13:04:31;16.10;92.50
31783;DHT22;18351;47.560;9.708;2024-02-16T13:06:57;16.20;92.40
31783;DHT22;18351;47.560;9.708;2024-02-16T13:09:23;16.40;91.70
31783;DHT22;18351;47.560;9.708;2024-02-16T13:11:49;16.40;91.90
31783;DHT22;18351;47.560;9.708;2024-02-16T13:14:20;16.70;90.80
31783;DHT22;18351;47.560;9.708;2024-02-16T13:16:45;16.80;90.80
31783;DHT22;18351;47.560;9.708;2024-02-16T13:19:11;17.00;88.20
31783;DHT22;18351;47.560;9.708;2024-02-16T13:21:37;17.00;86.80
31783;DHT22;18351;47.560;9.708;2024-02-16T13:24:02;17.00;86.60
31783;DHT22;18351;47.560;9.708;2024-02-16T13:26:28;17.00;87.30
31783;DHT22;18351;47.560;9.708;2024-02-16T13:28:53;17.20;88.80
31783;DHT22;18351;47.560;9.708;2024-02-16T13:31:20;17.50;89.10
31783;DHT22;18351;47.560;9.708;2024-02-16T13:33:45;17.60;88.60
31783;DHT22;18351;47.560;9.708;2024-02-16T13:36:11;17.70;87.20
31783;DHT22;18351;47.560;9.708;2024-02-16T13:38:36;17.80;87.10
31783;DHT22;18351;47.560;9.708;2024-02-16T13:41:02;17.90;87.10
31783;DHT22;18351;47.560;9.708;2024-02-16T13:43:30;18.00;85.80
31783;DHT22;18351;47.560;9.708;2024-02-16T13:45:56;17.90;86.60
31783;DHT22;18351;47.560;9.708;2024-02-16T13:48:23;18.00;87.60
31783;DHT22;18351;47.560;9.708;2024-02-16T13:50:50;18.10;87.10
31783;DHT22;18351;47.560;9.708;2024-02-16T13:53:16;18.20;89.70
31783;DHT22;18351;47.560;9.708;2024-02-16T13:55:43;18.10;86.90
31783;DHT22;18351;47.560;9.708;2024-02-16T13:58:12;17.90;87.70
31783;DHT22;18351;47.560;9.708;2024-02-16T14:00:38;17.90;89.60
31783;DHT22;18351;47.560;9.708;2024-02-16T14:03:08;17.90;89.60
31783;DHT22;18351;47.560;9.708;2024-02-16T14:05:38;18.00;89.90
31783;DHT22;18351;47.560;9.708;2024-02-16T14:08:04;18.10;89.80
31783;DHT22;18351;47.560;9.708;2024-02-16T14:10:31;18.20;90.00
31783;DHT22;18351;47.560;9.708;2024-02-16T14:13:00;18.20;89.00
31783;DHT22;18351;47.560;9.708;2024-02-16T14:15:25;18.20;90.10
31783;DHT22;18351;47.560;9.708;2024-02-16T14:17:51;18.00;89.60
31783;DHT22;18351;47.560;9.708;2024-02-16T14:20:16;17.90;90.10
31783;DHT22;18351;47.560;9.708;2024-02-16T14:22:42;17.80;89.60
31783;DHT22;18351;47.560;9.708;2024-02-16T14:25:09;17.70;89.10
31783;DHT22;18351;47.560;9.708;2024-02-16T14:27:36;17.60;90.00
31783;DHT22;18351;47.560;9.708;2024-02-16T14:30:03;17.60;90.40
31783;DHT22;18351;47.560;9.708;2024-02-16T14:32:28;17.60;90.30
31783;DHT22;18351;47.560;9.708;2024-02-16T14:34:54;17.50;90.40
31783;DHT22;18351;47.560;9.708;2024-02-16T14:37:20;17.40;90.70
31783;DHT22;18351;47.560;9.708;2024-02-16T14:39:45;17.30;90.50
31783;DHT22;18351;47.560;9.708;2024-02-16T14:42:12;17.20;90.50
31783;DHT22;18351;47.560;9.708;2024-02-16T14:44:37;17.20;91.60
31783;DHT22;18351;47.560;9.708;2024-02-16T14:47:03;17.10;91.60
31783;DHT22;18351;47.560;9.708;2024-02-16T14:49:28;17.10;91.60
31783;DHT22;18351;47.560;9.708;2024-02-16T14:51:56;17.00;91.50
31783;DHT22;18351;47.560;9.708;2024-02-16T14:54:22;17.00;91.40
31783;DHT22;18351;47.560;9.708;2024-02-16T14:56:51;16.90;91.50
31783;DHT22;18351;47.560;9.708;2024-02-16T14:59:18;16.90;91.80
31783;DHT22;18351;47.560;9.708;2024-02-16T15:01:43;16.90;92.00
31783;DHT22;18351;47.560;9.708;2024-02-16T15:04:09;16.80;91.90
31783;DHT22;18351;47.560;9.708;2024-02-16T15:06:35;16.70;91.50
31783;DHT22;18351;47.560;9.708;2024-02-16T15:09:01;16.60;91.90
31783;DHT22;18351;47.560;9.708;2024-02-16T15:11:30;16.60;92.30
31783;DHT22;18351;47.560;9.708;2024-02-16T15:13:56;16.60;92.80
31783;DHT22;18351;47.560;9.708;2024-02-16T15:16:21;16.60;93.00
31783;DHT22;18351;47.560;9.708;2024-02-16T15:18:47;16.50;92.80
31783;DHT22;18351;47.560;9.708;2024-02-16T15:21:13;16.50;92.90
31783;DHT22;18351;47.560;9.708;2024-02-16T15:23:38;16.40;93.00
31783;DHT22;18351;47.560;9.708;2024-02-16T15:26:04;16.40;93.20
31783;DHT22;18351;47.560;9.708;2024-02-16T15:28:31;16.40;93.60
31783;DHT22;18351;47.560;9.708;2024-02-16T15:30:57;16.30;94.20
31783;DHT22;18351;47.560;9.708;2024-02-16T15:33:23;16.30;93.80
31783;DHT22;18351;47.560;9.708;2024-02-16T15:35:48;16.20;94.10